Logroño, Spain

1:25 PM CET en Febrero 28, 2017 (GMT +0100)
Logrono | | Change Station

Alt 1191 ft 42.45 °N, 2.33 °W | Updated 25 minutes ago

Partly Cloudy
Parcialmente nublado
57 ° F
Sensación térmica 57 ° F
N
22
Viento Variable Viento desde Oeste

Hoy
Alta -- | Baja -- ° F
--% Posibilidad de precipitaciones
Ayer
Alta -- | Baja -- ° F
Precip. -- pul
Presión 29.80 pul
Visibilidad 6.2 Millas
Nubes Baja 6000 ft
Punto de rocío 39 ° F
Humedad 51%
Precipitaciones 0.00 pul
Espesor de la nieve No disponible.
7:46 AM 6:57 PM
Creciente, 4% visible
METAR LELO 281200Z 28019KT 9999 FEW060 14/04 Q1009
Presión 29.80 pul
Visibilidad 6.2 Millas
Nubes Baja 6000 ft
Punto de rocío 39 ° F
Humedad 51%
Precipitaciones 0.00 pul
Espesor de la nieve No disponible.
7:46 AM 6:57 PM
Creciente, 4% visible
METAR LELO 281200Z 28019KT 9999 FEW060 14/04 Q1009

Get Your Daily Forecast Email!

Thanks for signing up!

Be on the lookout for a verification email in your inbox.

You'll start receiving the daily forecast at 8 AM.

×

10-Day Weather Forecast

×

Almanac

Astronomía

Feb. 28, 2017 Salida Puesta
Hora real
Crepúsculo civil
Crepúsculo náutico
Crepúsculo astronómico
Luna
Horas de luz
Horas de luz
Tomorrow will be .
, % of the Moon is Illuminated

Extremos de hoy

Máximos del país Bajas del país

Community

WunderPhotos

Upload Photos

1,962,540 ¡fotos cargadas!

WunderBlog® & News

Nearby

Calidad del aire

  Calidad del aire Índice AQ Contaminante
Not available.

Grosos de nieve

Estación Profundido Altura

Actividad de terremotos

Ciudad Distance Mag. Tiempo y dato
Magnitud mínima muestra es 2,5.

Temperaturas de aguas costeras

Lugar Temperatura

Stations

Estaciones meteorológicas cercanas

Ubicación de la estación Temp. Vientos helados Punto de rocío Humedad Viento Precip. Alt Actualizado Tipo